Time,TemperatureF,DewpointF,PressureIn,WindDirection,WindDirectionDegrees,WindSpeedMPH,WindSpeedGustMPH,Humidity,HourlyPrecipIn,Conditions,Clouds,dailyrainin,SoftwareType,DateUTC
2013-03-03 00:00:00,28.2,19.7,29.70,North,0,1.6,3.1,70,0.00,,,0.00,pywws,2013-03-03 05:00:00,
2013-03-03 00:01:00,28.2,19.7,29.71,North,0,2.2,3.8,70,0.00,,,0.00,pywws,2013-03-03 05:01:00,
2013-03-03 00:03:00,28.2,19.7,29.71,North,0,1.6,3.8,70,0.00,,,0.00,pywws,2013-03-03 05:03:00,
2013-03-03 00:09:00,28.2,19.0,29.71,North,0,2.2,3.1,68,0.00,,,0.00,pywws,2013-03-03 05:09:00,
2013-03-03 00:11:00,28.2,19.0,29.70,North,0,1.6,3.1,68,0.00,,,0.00,pywws,2013-03-03 05:11:00,
2013-03-03 00:16:00,28.2,19.0,29.70,NE,45,0.7,2.2,68,0.00,,,0.00,pywws,2013-03-03 05:16:00,
2013-03-03 00:22:00,28.0,18.5,29.71,WNW,292,1.6,2.2,67,0.00,,,0.00,pywws,2013-03-03 05:22:00,
2013-03-03 00:27:00,28.2,18.7,29.70,West,270,2.2,3.8,67,0.00,,,0.00,pywws,2013-03-03 05:27:00,
2013-03-03 00:33:00,28.0,18.5,29.70,NE,45,2.2,3.1,67,0.00,,,0.00,pywws,2013-03-03 05:33:00,
2013-03-03 00:39:00,28.0,18.2,29.71,NE,45,1.6,3.1,66,0.00,,,0.00,pywws,2013-03-03 05:39:00,
2013-03-03 00:44:00,28.0,17.8,29.71,North,0,1.6,2.2,65,0.00,,,0.00,pywws,2013-03-03 05:44:00,
2013-03-03 00:50:00,28.0,17.8,29.71,NW,315,1.6,2.2,65,0.00,,,0.00,pywws,2013-03-03 05:50:00,
2013-03-03 00:55:00,28.0,18.2,29.71,North,0,0.7,0.7,66,0.00,,,0.00,pywws,2013-03-03 05:55:00,
2013-03-03 01:01:00,28.0,18.2,29.71,NW,315,0.7,2.2,66,0.00,,,0.00,pywws,2013-03-03 06:01:00,
2013-03-03 01:07:00,28.0,18.2,29.71,NW,315,1.6,3.1,66,0.00,,,0.00,pywws,2013-03-03 06:07:00,
2013-03-03 01:12:00,28.0,18.2,29.71,North,0,0.7,2.2,66,0.00,,,0.00,pywws,2013-03-03 06:12:00,
2013-03-03 01:18:00,28.0,18.2,29.71,North,0,0.7,1.6,66,0.00,,,0.00,pywws,2013-03-03 06:18:00,
2013-03-03 01:23:00,28.0,18.2,29.71,North,0,0.7,2.2,66,0.00,,,0.00,pywws,2013-03-03 06:23:00,
2013-03-03 01:29:00,28.0,17.8,29.71,North,0,0.7,0.7,65,0.00,,,0.00,pywws,2013-03-03 06:29:00,
2013-03-03 01:35:00,28.0,18.2,29.71,North,-999,0.0,0.7,66,0.00,,,0.00,pywws,2013-03-03 06:35:00,
2013-03-03 01:40:00,28.0,18.2,29.72,North,0,0.7,1.6,66,0.00,,,0.00,pywws,2013-03-03 06:40:00,
2013-03-03 01:46:00,28.0,18.2,29.71,NW,315,0.7,1.6,66,0.00,,,0.00,pywws,2013-03-03 06:46:00,
2013-03-03 01:52:00,28.0,18.5,29.71,North,0,0.7,1.6,67,0.00,,,0.00,pywws,2013-03-03 06:52:00,
2013-03-03 01:57:00,28.0,18.5,29.70,North,-999,0.0,0.7,67,0.00,,,0.00,pywws,2013-03-03 06:57:00,
2013-03-03 02:03:00,27.9,18.3,29.70,East,90,1.6,2.2,67,0.00,,,0.00,pywws,2013-03-03 07:03:00,
2013-03-03 02:08:00,27.9,18.3,29.70,North,0,0.7,1.6,67,0.00,,,0.00,pywws,2013-03-03 07:08:00,
2013-03-03 02:14:00,27.9,18.3,29.70,North,0,0.7,1.6,67,0.00,,,0.00,pywws,2013-03-03 07:14:00,
2013-03-03 02:19:00,27.9,18.3,29.70,North,0,0.7,1.6,67,0.00,,,0.00,pywws,2013-03-03 07:19:00,
2013-03-03 02:25:00,27.9,18.3,29.70,North,0,1.6,2.2,67,0.00,,,0.00,pywws,2013-03-03 07:25:00,
2013-03-03 02:31:00,27.9,18.3,29.70,NW,315,2.2,3.1,67,0.00,,,0.00,pywws,2013-03-03 07:31:00,
2013-03-03 02:36:00,27.9,18.0,29.70,NE,45,1.6,2.2,66,0.00,,,0.00,pywws,2013-03-03 07:36:00,
2013-03-03 02:42:00,27.9,18.0,29.69,North,0,0.7,1.6,66,0.00,,,0.00,pywws,2013-03-03 07:42:00,
2013-03-03 02:47:00,27.9,18.3,29.69,NE,45,2.2,3.8,67,0.00,,,0.00,pywws,2013-03-03 07:47:00,
2013-03-03 02:53:00,27.7,17.8,29.69,North,0,0.7,1.6,66,0.00,,,0.00,pywws,2013-03-03 07:53:00,
2013-03-03 02:59:00,27.7,18.2,29.69,North,0,0.7,1.6,67,0.00,,,0.00,pywws,2013-03-03 07:59:00,
2013-03-03 03:04:00,27.7,17.8,29.69,North,-999,0.0,0.7,66,0.00,,,0.00,pywws,2013-03-03 08:04:00,
2013-03-03 03:10:00,27.5,17.7,29.69,NE,45,1.6,2.2,66,0.00,,,0.00,pywws,2013-03-03 08:10:00,
2013-03-03 03:16:00,27.5,17.3,29.69,North,0,0.7,1.6,65,0.00,,,0.00,pywws,2013-03-03 08:16:00,
2013-03-03 03:21:00,27.5,16.6,29.69,North,0,0.7,1.6,63,0.00,,,0.00,pywws,2013-03-03 08:21:00,
2013-03-03 03:27:00,27.3,16.4,29.68,North,0,0.7,2.2,63,0.00,,,0.00,pywws,2013-03-03 08:27:00,
2013-03-03 03:32:00,27.3,16.0,29.69,North,0,1.6,3.1,62,0.00,,,0.00,pywws,2013-03-03 08:32:00,
2013-03-03 03:38:00,27.3,16.0,29.69,North,0,1.6,3.1,62,0.00,,,0.00,pywws,2013-03-03 08:38:00,
2013-03-03 03:43:00,27.1,15.9,29.68,North,0,0.7,1.6,62,0.00,,,0.00,pywws,2013-03-03 08:43:00,
2013-03-03 03:49:00,27.1,16.2,29.68,North,0,1.6,2.2,63,0.00,,,0.00,pywws,2013-03-03 08:49:00,
2013-03-03 03:55:00,27.1,15.9,29.69,NNE,22,0.7,1.6,62,0.00,,,0.00,pywws,2013-03-03 08:55:00,
2013-03-03 04:00:00,27.0,15.3,29.69,North,0,0.7,1.6,61,0.00,,,0.00,pywws,2013-03-03 09:00:00,
2013-03-03 04:06:00,27.0,15.3,29.69,NE,45,0.7,1.6,61,0.00,,,0.00,pywws,2013-03-03 09:06:00,
2013-03-03 04:11:00,27.0,15.3,29.69,North,0,0.7,2.2,61,0.00,,,0.00,pywws,2013-03-03 09:11:00,
2013-03-03 04:17:00,27.0,15.3,29.69,NW,315,0.7,1.6,61,0.00,,,0.00,pywws,2013-03-03 09:17:00,
2013-03-03 04:23:00,27.0,15.7,29.69,North,0,0.7,1.6,62,0.00,,,0.00,pywws,2013-03-03 09:23:00,
2013-03-03 04:28:00,27.0,15.3,29.69,NW,315,0.7,2.2,61,0.00,,,0.00,pywws,2013-03-03 09:28:00,
2013-03-03 04:34:00,27.0,15.3,29.69,North,0,0.7,1.6,61,0.00,,,0.00,pywws,2013-03-03 09:34:00,
2013-03-03 04:39:00,27.0,15.0,29.69,North,0,1.6,2.2,60,0.00,,,0.00,pywws,2013-03-03 09:39:00,
2013-03-03 04:45:00,26.8,14.4,29.69,North,0,1.6,2.2,59,0.00,,,0.00,pywws,2013-03-03 09:45:00,
2013-03-03 04:51:00,26.8,14.0,29.69,West,270,2.2,3.8,58,0.00,,,0.00,pywws,2013-03-03 09:51:00,
2013-03-03 04:56:00,26.8,13.6,29.70,North,0,1.6,2.2,57,0.00,,,0.00,pywws,2013-03-03 09:56:00,
2013-03-03 05:02:00,26.8,13.6,29.70,North,0,0.7,2.2,57,0.00,,,0.00,pywws,2013-03-03 10:02:00,
2013-03-03 05:08:00,26.8,13.6,29.70,North,0,0.7,1.6,57,0.00,,,0.00,pywws,2013-03-03 10:08:00,
2013-03-03 05:13:00,26.8,14.0,29.70,North,0,1.6,2.2,58,0.00,,,0.00,pywws,2013-03-03 10:13:00,
2013-03-03 05:19:00,26.6,13.4,29.70,North,0,0.7,1.6,57,0.00,,,0.00,pywws,2013-03-03 10:19:00,
2013-03-03 05:24:00,26.6,14.2,29.70,NW,315,0.7,2.2,59,0.00,,,0.00,pywws,2013-03-03 10:24:00,
2013-03-03 05:30:00,26.6,13.8,29.70,NW,315,1.6,2.2,58,0.04,,,0.00,pywws,2013-03-03 10:30:00,
2013-03-03 05:36:00,26.6,13.8,29.70,NW,315,1.6,2.2,58,0.00,,,0.00,pywws,2013-03-03 10:36:00,
2013-03-03 05:41:00,26.6,14.2,29.70,North,0,0.7,1.6,59,0.00,,,0.00,pywws,2013-03-03 10:41:00,
2013-03-03 05:47:00,26.4,14.1,29.70,North,0,0.7,2.2,59,0.00,,,0.00,pywws,2013-03-03 10:47:00,
2013-03-03 05:52:00,26.4,14.1,29.70,North,0,0.7,1.6,59,0.00,,,0.00,pywws,2013-03-03 10:52:00,
2013-03-03 05:58:00,26.4,14.1,29.70,North,0,0.7,1.6,59,0.00,,,0.00,pywws,2013-03-03 10:58:00,
2013-03-03 06:03:00,26.2,13.9,29.70,North,0,0.7,1.6,59,0.00,,,0.00,pywws,2013-03-03 11:03:00,
2013-03-03 06:09:00,26.2,13.9,29.70,NW,315,1.6,2.2,59,0.00,,,0.00,pywws,2013-03-03 11:09:00,
2013-03-03 06:15:00,26.2,13.5,29.70,NE,45,1.6,2.2,58,0.00,,,0.00,pywws,2013-03-03 11:15:00,
2013-03-03 06:20:00,26.2,13.9,29.70,North,0,0.7,1.6,59,0.00,,,0.00,pywws,2013-03-03 11:20:00,
2013-03-03 06:26:00,26.2,13.9,29.70,North,0,0.7,1.6,59,0.00,,,0.00,pywws,2013-03-03 11:26:00,
2013-03-03 06:31:00,26.2,13.9,29.70,North,0,0.7,1.6,59,0.00,,,0.00,pywws,2013-03-03 11:31:00,
2013-03-03 06:37:00,26.2,13.9,29.71,NW,315,0.7,2.2,59,0.00,,,0.00,pywws,2013-03-03 11:37:00,
2013-03-03 06:43:00,26.2,13.9,29.70,North,0,1.6,2.2,59,0.00,,,0.00,pywws,2013-03-03 11:43:00,
2013-03-03 06:48:00,26.2,13.1,29.70,NE,45,0.7,2.2,57,0.00,,,0.00,pywws,2013-03-03 11:48:00,
2013-03-03 06:54:00,26.4,13.7,29.71,North,0,0.7,2.2,58,0.00,,,0.00,pywws,2013-03-03 11:54:00,
2013-03-03 06:59:00,26.4,13.7,29.71,North,0,1.6,3.1,58,0.00,,,0.00,pywws,2013-03-03 11:59:00,
2013-03-03 07:05:00,26.4,13.3,29.71,North,0,0.7,1.6,57,0.00,,,0.00,pywws,2013-03-03 12:05:00,
2013-03-03 07:11:00,26.6,12.6,29.71,North,0,1.6,2.2,55,0.00,,,0.00,pywws,2013-03-03 12:11:00,
2013-03-03 07:16:00,26.6,12.6,29.71,North,0,1.6,3.1,55,0.00,,,0.00,pywws,2013-03-03 12:16:00,
2013-03-03 07:22:00,26.8,12.4,29.71,North,0,1.6,3.1,54,0.00,,,0.00,pywws,2013-03-03 12:22:00,
2013-03-03 07:27:00,26.8,12.8,29.72,North,0,1.6,3.1,55,0.00,,,0.00,pywws,2013-03-03 12:27:00,
2013-03-03 07:33:00,27.0,12.6,29.72,NW,315,1.6,2.2,54,0.00,,,0.00,pywws,2013-03-03 12:33:00,
2013-03-03 07:39:00,27.1,12.7,29.71,NW,315,1.6,3.1,54,0.00,,,0.00,pywws,2013-03-03 12:39:00,
2013-03-03 07:44:00,27.3,12.9,29.71,West,270,2.2,3.1,54,0.00,,,0.00,pywws,2013-03-03 12:44:00,
2013-03-03 07:50:00,27.3,12.5,29.71,South,180,3.1,5.4,53,0.00,,,0.00,pywws,2013-03-03 12:50:00,
2013-03-03 07:55:00,27.5,12.6,29.71,North,0,3.1,4.5,53,0.00,,,0.00,pywws,2013-03-03 12:55:00,
2013-03-03 08:01:00,27.7,12.4,29.71,North,0,1.6,2.2,52,0.00,,,0.00,pywws,2013-03-03 13:01:00,
2013-03-03 08:07:00,27.9,13.0,29.71,NW,315,1.6,2.2,53,0.00,,,0.00,pywws,2013-03-03 13:07:00,
2013-03-03 08:12:00,28.0,12.7,29.71,NE,45,1.6,3.1,52,0.00,,,0.00,pywws,2013-03-03 13:12:00,
2013-03-03 08:18:00,28.6,14.9,29.71,NW,315,3.1,3.8,56,0.00,,,0.00,pywws,2013-03-03 13:18:00,
2013-03-03 08:24:00,28.6,14.5,29.71,NNW,338,2.2,3.8,55,0.00,,,0.00,pywws,2013-03-03 13:24:00,
2013-03-03 08:29:00,28.8,15.1,29.71,West,270,1.6,3.1,56,0.00,,,0.00,pywws,2013-03-03 13:29:00,
2013-03-03 08:35:00,28.8,14.7,29.71,NE,45,1.6,2.2,55,0.00,,,0.00,pywws,2013-03-03 13:35:00,
2013-03-03 08:40:00,29.3,15.2,29.70,North,0,1.6,3.1,55,0.00,,,0.00,pywws,2013-03-03 13:40:00,
2013-03-03 08:46:00,29.7,15.5,29.70,North,0,2.2,3.8,55,0.00,,,0.00,pywws,2013-03-03 13:46:00,
2013-03-03 08:51:00,29.3,14.7,29.70,NE,45,1.6,2.2,54,0.00,,,0.00,pywws,2013-03-03 13:51:00,
2013-03-03 08:56:00,29.1,15.0,29.71,NE,45,1.6,3.1,55,0.00,,,0.00,pywws,2013-03-03 13:56:00,
2013-03-03 09:02:00,29.1,15.0,29.70,North,0,0.7,1.6,55,0.00,,,0.00,pywws,2013-03-03 14:02:00,
2013-03-03 09:07:00,29.7,15.5,29.70,NE,45,1.6,3.1,55,0.00,,,0.00,pywws,2013-03-03 14:07:00,
2013-03-03 09:13:00,30.0,14.6,29.70,NE,45,1.6,3.1,52,0.00,,,0.00,pywws,2013-03-03 14:13:00,
2013-03-03 09:19:00,30.2,15.2,29.70,NW,315,1.6,2.2,53,0.00,,,0.00,pywws,2013-03-03 14:19:00,
2013-03-03 09:24:00,30.7,15.2,29.70,NE,45,1.6,3.1,52,0.00,,,0.00,pywws,2013-03-03 14:24:00,
2013-03-03 09:30:00,30.9,14.5,29.70,West,270,3.8,6.0,50,0.00,,,0.00,pywws,2013-03-03 14:30:00,
2013-03-03 09:35:00,30.9,14.9,29.70,North,0,2.2,4.5,51,0.00,,,0.00,pywws,2013-03-03 14:35:00,
2013-03-03 09:41:00,31.1,15.1,29.70,NW,315,1.6,3.1,51,0.00,,,0.00,pywws,2013-03-03 14:41:00,
2013-03-03 09:47:00,31.3,14.8,29.70,NNE,22,1.6,3.1,50,0.00,,,0.00,pywws,2013-03-03 14:47:00,
2013-03-03 09:52:00,32.0,15.5,29.69,NW,315,1.6,3.1,50,0.00,,,0.00,pywws,2013-03-03 14:52:00,
2013-03-03 09:58:00,32.0,15.0,29.69,North,0,1.6,3.1,49,0.00,,,0.00,pywws,2013-03-03 14:58:00,
2013-03-03 10:03:00,31.8,15.3,29.69,NE,45,2.2,3.1,50,0.00,,,0.00,pywws,2013-03-03 15:03:00,
2013-03-03 10:09:00,32.4,14.9,29.69,NW,315,2.2,4.5,48,0.00,,,0.00,pywws,2013-03-03 15:09:00,
2013-03-03 10:15:00,33.6,16.5,29.69,North,0,2.2,5.4,49,0.00,,,0.00,pywws,2013-03-03 15:15:00,
2013-03-03 10:20:00,33.6,16.5,29.69,North,0,1.6,3.8,49,0.00,,,0.00,pywws,2013-03-03 15:20:00,
2013-03-03 10:26:00,33.4,15.9,29.69,NNE,22,0.7,1.6,48,0.00,,,0.00,pywws,2013-03-03 15:26:00,
2013-03-03 10:31:00,33.8,16.2,29.69,NE,45,3.1,5.4,48,0.00,,,0.00,pywws,2013-03-03 15:31:00,
2013-03-03 10:37:00,34.7,18.4,29.69,NE,45,1.6,4.5,51,0.00,,,0.00,pywws,2013-03-03 15:37:00,
2013-03-03 10:43:00,34.5,17.4,29.69,NE,45,2.2,3.8,49,0.00,,,0.00,pywws,2013-03-03 15:43:00,
2013-03-03 10:48:00,33.4,16.4,29.69,North,0,0.7,2.2,49,0.00,,,0.00,pywws,2013-03-03 15:48:00,
2013-03-03 10:54:00,33.3,16.2,29.69,NE,45,3.1,5.4,49,0.00,,,0.00,pywws,2013-03-03 15:54:00,
2013-03-03 10:59:00,33.1,16.5,29.69,East,90,2.2,3.8,50,0.00,,,0.00,pywws,2013-03-03 15:59:00,
2013-03-03 11:05:00,34.5,17.4,29.69,North,0,3.8,5.4,49,0.00,,,0.00,pywws,2013-03-03 16:05:00,
2013-03-03 11:11:00,35.2,17.1,29.69,North,0,2.2,4.5,47,0.00,,,0.00,pywws,2013-03-03 16:11:00,
2013-03-03 11:16:00,36.1,17.9,29.69,NW,315,1.6,3.1,47,0.00,,,0.00,pywws,2013-03-03 16:16:00,
2013-03-03 11:22:00,36.3,17.5,29.68,North,0,2.2,3.8,46,0.00,,,0.00,pywws,2013-03-03 16:22:00,
2013-03-03 11:27:00,36.9,18.0,29.68,NE,45,2.2,4.5,46,0.00,,,0.00,pywws,2013-03-03 16:27:00,
2013-03-03 11:33:00,37.6,20.2,29.68,North,0,1.6,3.1,49,0.00,,,0.00,pywws,2013-03-03 16:33:00,
2013-03-03 11:39:00,38.1,20.2,29.68,North,0,2.2,3.8,48,0.00,,,0.00,pywws,2013-03-03 16:39:00,
2013-03-03 11:44:00,38.1,20.7,29.68,NE,45,3.1,4.5,49,0.00,,,0.00,pywws,2013-03-03 16:44:00,
2013-03-03 11:50:00,39.2,21.7,29.68,North,0,1.6,2.2,49,0.00,,,0.00,pywws,2013-03-03 16:50:00,
2013-03-03 11:55:00,39.2,20.7,29.68,NE,45,2.2,3.8,47,0.00,,,0.00,pywws,2013-03-03 16:55:00,
2013-03-03 12:01:00,38.8,20.8,29.68,NW,315,1.6,3.8,48,0.00,,,0.00,pywws,2013-03-03 17:01:00,
2013-03-03 12:07:00,39.4,20.3,29.67,North,0,3.1,5.4,46,0.00,,,0.00,pywws,2013-03-03 17:07:00,
2013-03-03 12:12:00,38.8,20.4,29.67,NE,45,1.6,2.2,47,0.00,,,0.00,pywws,2013-03-03 17:12:00,
2013-03-03 12:18:00,38.8,20.8,29.67,NE,45,2.2,3.8,48,0.00,,,0.00,pywws,2013-03-03 17:18:00,
2013-03-03 12:23:00,39.7,20.7,29.67,NE,45,3.8,5.4,46,0.00,,,0.00,pywws,2013-03-03 17:23:00,
2013-03-03 12:29:00,40.6,21.5,29.67,North,0,2.2,3.8,46,0.00,,,0.00,pywws,2013-03-03 17:29:00,
2013-03-03 12:35:00,39.7,20.2,29.67,North,0,1.6,3.1,45,0.00,,,0.00,pywws,2013-03-03 17:35:00,
2013-03-03 12:40:00,38.8,19.3,29.67,NW,315,2.2,3.8,45,0.00,,,0.00,pywws,2013-03-03 17:40:00,
2013-03-03 12:46:00,37.8,18.9,29.66,NW,315,3.8,6.0,46,0.00,,,0.00,pywws,2013-03-03 17:46:00,
2013-03-03 12:51:00,37.2,16.3,29.66,NE,45,3.1,5.4,42,0.00,,,0.00,pywws,2013-03-03 17:51:00,
2013-03-03 12:57:00,36.9,16.5,29.65,NNE,22,2.2,3.1,43,0.00,,,0.00,pywws,2013-03-03 17:57:00,
2013-03-03 13:03:00,37.6,19.2,29.65,NE,45,3.1,4.5,47,0.00,,,0.00,pywws,2013-03-03 18:03:00,
2013-03-03 13:08:00,39.9,21.8,29.65,West,270,3.1,5.4,48,0.00,,,0.00,pywws,2013-03-03 18:08:00,
2013-03-03 13:14:00,41.9,21.1,29.65,North,0,1.6,3.8,43,0.00,,,0.00,pywws,2013-03-03 18:14:00,
2013-03-03 13:19:00,43.7,22.7,29.65,NE,45,2.2,3.1,43,0.00,,,0.00,pywws,2013-03-03 18:19:00,
2013-03-03 13:25:00,45.7,23.9,29.65,North,0,3.8,5.4,42,0.00,,,0.00,pywws,2013-03-03 18:25:00,
2013-03-03 13:31:00,46.2,21.4,29.65,NW,315,1.6,3.1,37,0.00,,,0.00,pywws,2013-03-03 18:31:00,
2013-03-03 13:36:00,46.0,19.3,29.64,North,0,2.2,4.5,34,0.00,,,0.00,pywws,2013-03-03 18:36:00,
2013-03-03 13:42:00,45.1,18.5,29.64,North,0,3.8,4.5,34,0.00,,,0.00,pywws,2013-03-03 18:42:00,
2013-03-03 13:47:00,43.9,18.7,29.64,North,0,3.1,4.5,36,0.00,,,0.00,pywws,2013-03-03 18:47:00,
2013-03-03 13:53:00,43.7,20.4,29.64,West,270,3.1,4.5,39,0.00,,,0.00,pywws,2013-03-03 18:53:00,
2013-03-03 13:59:00,44.2,20.3,29.64,North,0,1.6,3.1,38,0.00,,,0.00,pywws,2013-03-03 18:59:00,
2013-03-03 14:04:00,45.1,20.4,29.64,North,0,3.1,5.4,37,0.00,,,0.00,pywws,2013-03-03 19:04:00,
2013-03-03 14:10:00,46.4,20.3,29.64,NE,45,3.1,3.8,35,0.00,,,0.00,pywws,2013-03-03 19:10:00,
2013-03-03 14:15:00,46.6,17.6,29.64,North,0,1.6,3.1,31,0.00,,,0.00,pywws,2013-03-03 19:15:00,
2013-03-03 14:21:00,46.2,18.0,29.64,NW,315,1.6,3.8,32,0.00,,,0.00,pywws,2013-03-03 19:21:00,
2013-03-03 14:27:00,45.5,18.8,29.64,North,0,2.2,4.5,34,0.00,,,0.00,pywws,2013-03-03 19:27:00,
2013-03-03 14:32:00,41.9,15.6,29.64,North,0,2.2,3.8,34,0.00,,,0.00,pywws,2013-03-03 19:32:00,
2013-03-03 14:38:00,41.4,21.1,29.65,North,0,1.6,3.1,44,0.00,,,0.00,pywws,2013-03-03 19:38:00,
2013-03-03 14:43:00,42.6,21.7,29.64,West,270,1.6,3.1,43,0.00,,,0.00,pywws,2013-03-03 19:43:00,
2013-03-03 14:49:00,41.4,20.6,29.64,NW,315,2.2,3.8,43,0.00,,,0.00,pywws,2013-03-03 19:49:00,
2013-03-03 14:55:00,39.4,19.3,29.65,NE,45,3.1,4.5,44,0.00,,,0.00,pywws,2013-03-03 19:55:00,
2013-03-03 15:00:00,38.7,20.7,29.65,North,0,2.2,3.8,48,0.00,,,0.00,pywws,2013-03-03 20:00:00,
2013-03-03 15:06:00,38.3,20.4,29.65,NNE,22,2.2,3.8,48,0.00,,,0.00,pywws,2013-03-03 20:06:00,
2013-03-03 15:11:00,38.5,21.0,29.65,North,0,2.2,3.8,49,0.00,,,0.00,pywws,2013-03-03 20:11:00,
2013-03-03 15:17:00,37.9,20.0,29.65,North,0,2.2,3.8,48,0.00,,,0.00,pywws,2013-03-03 20:17:00,
2013-03-03 15:23:00,38.1,21.1,29.65,North,0,3.8,6.0,50,0.00,,,0.00,pywws,2013-03-03 20:23:00,
2013-03-03 15:28:00,37.9,21.4,29.65,North,0,2.2,4.5,51,0.00,,,0.00,pywws,2013-03-03 20:28:00,
2013-03-03 15:34:00,37.9,20.5,29.65,North,0,2.2,4.5,49,0.00,,,0.00,pywws,2013-03-03 20:34:00,
2013-03-03 15:39:00,37.6,21.1,29.65,North,0,2.2,3.8,51,0.00,,,0.00,pywws,2013-03-03 20:39:00,
2013-03-03 15:45:00,38.5,22.4,29.65,North,0,1.6,3.1,52,0.00,,,0.00,pywws,2013-03-03 20:45:00,
2013-03-03 15:51:00,38.5,22.4,29.65,North,0,2.2,3.1,52,0.00,,,0.00,pywws,2013-03-03 20:51:00,
2013-03-03 15:56:00,38.5,21.5,29.65,NNE,22,3.8,6.0,50,0.00,,,0.00,pywws,2013-03-03 20:56:00,
2013-03-03 16:02:00,37.9,21.0,29.65,East,90,3.8,6.0,50,0.00,,,0.00,pywws,2013-03-03 21:02:00,
2013-03-03 16:07:00,37.8,21.7,29.65,WSW,248,3.1,4.5,52,0.00,,,0.00,pywws,2013-03-03 21:07:00,
2013-03-03 16:13:00,38.1,21.1,29.66,NW,315,0.7,2.2,50,0.00,,,0.00,pywws,2013-03-03 21:13:00,
2013-03-03 16:19:00,36.7,17.9,29.66,West,270,3.1,6.0,46,0.00,,,0.00,pywws,2013-03-03 21:19:00,
2013-03-03 16:24:00,35.4,18.7,29.66,NE,45,2.2,3.8,50,0.00,,,0.00,pywws,2013-03-03 21:24:00,
2013-03-03 16:30:00,34.9,19.1,29.66,NE,45,3.8,5.4,52,0.00,,,0.00,pywws,2013-03-03 21:30:00,
2013-03-03 16:35:00,34.2,18.4,29.66,North,0,2.2,3.1,52,0.00,,,0.00,pywws,2013-03-03 21:35:00,
2013-03-03 16:41:00,34.2,18.8,29.66,WNW,292,1.6,3.8,53,0.00,,,0.00,pywws,2013-03-03 21:41:00,
2013-03-03 16:47:00,34.2,18.8,29.66,NE,45,1.6,3.1,53,0.00,,,0.00,pywws,2013-03-03 21:47:00,
2013-03-03 16:52:00,34.2,18.8,29.66,North,0,1.6,3.1,53,0.00,,,0.00,pywws,2013-03-03 21:52:00,
2013-03-03 16:58:00,34.2,18.8,29.66,North,0,1.6,3.1,53,0.00,,,0.00,pywws,2013-03-03 21:58:00,
2013-03-03 17:03:00,33.8,18.1,29.66,North,0,2.2,6.0,52,0.00,,,0.00,pywws,2013-03-03 22:03:00,
2013-03-03 17:09:00,33.4,18.6,29.66,West,270,2.2,3.1,54,0.00,,,0.00,pywws,2013-03-03 22:09:00,
2013-03-03 17:15:00,33.4,18.2,29.66,North,0,2.2,3.1,53,0.00,,,0.00,pywws,2013-03-03 22:15:00,
2013-03-03 17:20:00,33.1,17.8,29.66,SSE,158,2.2,3.8,53,0.00,,,0.00,pywws,2013-03-03 22:20:00,
2013-03-03 17:26:00,32.9,17.7,29.66,North,0,3.1,3.8,53,0.00,,,0.00,pywws,2013-03-03 22:26:00,
2013-03-03 17:31:00,32.7,17.9,29.66,NNE,22,3.1,4.5,54,0.00,,,0.00,pywws,2013-03-03 22:31:00,
2013-03-03 17:37:00,32.5,17.3,29.67,NE,45,2.2,4.5,53,0.00,,,0.00,pywws,2013-03-03 22:37:00,
2013-03-03 17:43:00,32.4,17.2,29.67,North,0,2.2,3.1,53,0.00,,,0.00,pywws,2013-03-03 22:43:00,
2013-03-03 17:48:00,32.2,17.0,29.67,NNE,22,2.2,3.8,53,0.00,,,0.00,pywws,2013-03-03 22:48:00,
2013-03-03 17:54:00,32.2,17.0,29.67,North,0,1.6,2.2,53,0.00,,,0.00,pywws,2013-03-03 22:54:00,
2013-03-03 17:59:00,32.0,17.3,29.67,NE,45,2.2,3.1,54,0.00,,,0.00,pywws,2013-03-03 22:59:00,
2013-03-03 18:05:00,32.0,16.8,29.67,West,270,3.8,8.3,53,0.00,,,0.00,pywws,2013-03-03 23:05:00,
2013-03-03 18:11:00,32.0,17.3,29.67,North,0,2.2,3.8,54,0.00,,,0.00,pywws,2013-03-03 23:11:00,
2013-03-03 18:16:00,32.0,16.8,29.67,NW,315,0.7,2.2,53,0.00,,,0.00,pywws,2013-03-03 23:16:00,
2013-03-03 18:22:00,32.0,16.8,29.67,North,0,2.2,3.1,53,0.00,,,0.00,pywws,2013-03-03 23:22:00,
2013-03-03 18:27:00,32.0,16.8,29.67,West,270,1.6,3.1,53,0.00,,,0.00,pywws,2013-03-03 23:27:00,
2013-03-03 18:33:00,31.8,17.1,29.68,NE,45,3.1,5.4,54,0.00,,,0.00,pywws,2013-03-03 23:33:00,
2013-03-03 18:39:00,31.6,16.5,29.68,East,90,2.2,3.1,53,0.00,,,0.00,pywws,2013-03-03 23:39:00,
2013-03-03 18:44:00,31.6,16.9,29.69,NW,315,1.6,3.1,54,0.00,,,0.00,pywws,2013-03-03 23:44:00,
2013-03-03 18:50:00,31.5,16.3,29.68,North,0,2.2,3.1,53,0.00,,,0.00,pywws,2013-03-03 23:50:00,
2013-03-03 18:55:00,31.5,16.8,29.69,NNE,22,3.1,4.5,54,0.00,,,0.00,pywws,2013-03-03 23:55:00,
2013-03-03 19:01:00,31.3,16.6,29.69,North,0,2.2,3.1,54,0.00,,,0.00,pywws,2013-03-04 00:01:00,
2013-03-03 19:07:00,31.1,16.4,29.69,North,0,1.6,2.2,54,0.00,,,0.00,pywws,2013-03-04 00:07:00,
2013-03-03 19:12:00,30.9,16.3,29.69,WNW,292,3.1,6.0,54,0.00,,,0.00,pywws,2013-03-04 00:12:00,
2013-03-03 19:18:00,30.7,16.1,29.69,West,270,2.2,4.5,54,0.00,,,0.00,pywws,2013-03-04 00:18:00,
2013-03-03 19:23:00,30.6,16.3,29.69,NE,45,2.2,3.1,55,0.00,,,0.00,pywws,2013-03-04 00:23:00,
2013-03-03 19:29:00,30.2,16.0,29.69,East,90,2.2,3.8,55,0.00,,,0.00,pywws,2013-03-04 00:29:00,
2013-03-03 19:35:00,30.2,16.0,29.69,North,0,3.1,5.4,55,0.00,,,0.00,pywws,2013-03-04 00:35:00,
2013-03-03 19:40:00,30.0,16.2,29.70,NE,45,2.2,3.1,56,0.00,,,0.00,pywws,2013-03-04 00:40:00,
2013-03-03 19:46:00,29.8,15.7,29.70,SW,225,3.1,5.4,55,0.00,,,0.00,pywws,2013-03-04 00:46:00,
2013-03-03 19:51:00,29.8,16.1,29.70,North,0,1.6,3.8,56,0.00,,,0.00,pywws,2013-03-04 00:51:00,
2013-03-03 19:57:00,29.7,15.9,29.70,West,270,2.2,4.5,56,0.00,,,0.00,pywws,2013-03-04 00:57:00,
2013-03-03 20:03:00,29.3,15.6,29.70,North,0,2.2,3.8,56,0.00,,,0.00,pywws,2013-03-04 01:03:00,
2013-03-03 20:08:00,29.3,15.2,29.70,North,0,1.6,3.1,55,0.00,,,0.00,pywws,2013-03-04 01:08:00,
2013-03-03 20:14:00,29.1,15.4,29.71,NW,315,2.2,4.5,56,0.00,,,0.00,pywws,2013-03-04 01:14:00,
2013-03-03 20:19:00,28.9,15.2,29.71,WNW,292,2.2,3.8,56,0.00,,,0.00,pywws,2013-03-04 01:19:00,
2013-03-03 20:25:00,28.9,15.2,29.71,NNW,338,2.2,3.8,56,0.00,,,0.00,pywws,2013-03-04 01:25:00,
2013-03-03 20:31:00,28.9,15.2,29.71,North,0,2.2,3.8,56,0.00,,,0.00,pywws,2013-03-04 01:31:00,
2013-03-03 20:36:00,28.8,14.7,29.71,North,0,2.2,3.1,55,0.00,,,0.00,pywws,2013-03-04 01:36:00,
2013-03-03 20:42:00,28.8,14.7,29.71,NW,315,2.2,3.1,55,0.00,,,0.00,pywws,2013-03-04 01:42:00,
2013-03-03 20:47:00,28.8,14.7,29.71,NW,315,1.6,2.2,55,0.00,,,0.00,pywws,2013-03-04 01:47:00,
2013-03-03 20:53:00,28.6,14.5,29.71,NW,315,2.2,3.8,55,0.00,,,0.00,pywws,2013-03-04 01:53:00,
2013-03-03 20:59:00,28.4,14.7,29.72,NE,45,2.2,3.8,56,0.00,,,0.00,pywws,2013-03-04 01:59:00,
2013-03-03 21:04:00,28.4,14.7,29.72,West,270,1.6,3.1,56,0.00,,,0.00,pywws,2013-03-04 02:04:00,
2013-03-03 21:10:00,28.2,12.9,29.72,NW,315,1.6,2.2,52,0.00,,,0.00,pywws,2013-03-04 02:10:00,
2013-03-03 21:15:00,28.0,12.7,29.73,North,0,1.6,2.2,52,0.00,,,0.00,pywws,2013-03-04 02:15:00,
2013-03-03 21:21:00,27.9,12.5,29.73,North,0,1.6,3.1,52,0.00,,,0.00,pywws,2013-03-04 02:21:00,
2013-03-03 21:27:00,27.7,12.4,29.73,NE,45,4.5,6.0,52,0.00,,,0.00,pywws,2013-03-04 02:27:00,
2013-03-03 21:32:00,27.9,12.5,29.73,North,0,2.2,4.5,52,0.00,,,0.00,pywws,2013-03-04 02:32:00,
2013-03-03 21:38:00,27.7,12.4,29.74,East,90,2.2,6.0,52,0.00,,,0.00,pywws,2013-03-04 02:38:00,
2013-03-03 21:43:00,27.7,12.4,29.74,West,270,2.2,3.1,52,0.00,,,0.00,pywws,2013-03-04 02:43:00,
2013-03-03 21:49:00,27.5,12.2,29.74,North,0,2.2,3.8,52,0.00,,,0.00,pywws,2013-03-04 02:49:00,
2013-03-03 21:55:00,27.5,12.2,29.75,SW,225,1.6,3.8,52,0.00,,,0.00,pywws,2013-03-04 02:55:00,
2013-03-03 22:00:00,27.5,12.2,29.75,North,0,1.6,3.1,52,0.00,,,0.00,pywws,2013-03-04 03:00:00,
2013-03-03 22:06:00,27.5,12.2,29.75,North,0,2.2,5.4,52,0.00,,,0.00,pywws,2013-03-04 03:06:00,
2013-03-03 22:11:00,27.5,12.2,29.75,NW,315,4.5,6.9,52,0.00,,,0.00,pywws,2013-03-04 03:11:00,
2013-03-03 22:17:00,27.3,12.0,29.75,North,0,2.2,3.8,52,0.00,,,0.00,pywws,2013-03-04 03:17:00,
2013-03-03 22:23:00,27.3,12.0,29.75,NE,45,2.2,3.1,52,0.00,,,0.00,pywws,2013-03-04 03:23:00,
2013-03-03 22:28:00,27.3,12.0,29.75,North,0,1.6,3.8,52,0.00,,,0.00,pywws,2013-03-04 03:28:00,
2013-03-03 22:34:00,27.3,12.0,29.75,North,0,1.6,3.1,52,0.00,,,0.00,pywws,2013-03-04 03:34:00,
2013-03-03 22:39:00,27.1,11.9,29.75,North,0,1.6,2.2,52,0.00,,,0.00,pywws,2013-03-04 03:39:00,
2013-03-03 22:45:00,27.0,12.1,29.75,NW,315,1.6,3.8,53,0.00,,,0.00,pywws,2013-03-04 03:45:00,
2013-03-03 22:51:00,27.0,12.1,29.75,NW,315,1.6,3.8,53,0.00,,,0.00,pywws,2013-03-04 03:51:00,
2013-03-03 22:56:00,27.0,11.7,29.75,North,0,2.2,3.8,52,0.00,,,0.00,pywws,2013-03-04 03:56:00,
2013-03-03 23:02:00,27.0,11.7,29.75,NW,315,2.2,3.8,52,0.00,,,0.00,pywws,2013-03-04 04:02:00,
2013-03-03 23:07:00,26.8,12.0,29.75,NNE,22,3.1,6.0,53,0.00,,,0.00,pywws,2013-03-04 04:07:00,
2013-03-03 23:13:00,26.8,11.5,29.75,NW,315,3.1,4.5,52,0.00,,,0.00,pywws,2013-03-04 04:13:00,
2013-03-03 23:19:00,26.8,11.5,29.75,NW,315,2.2,3.8,52,0.00,,,0.00,pywws,2013-03-04 04:19:00,
2013-03-03 23:24:00,26.8,11.5,29.75,NW,315,2.2,3.8,52,0.00,,,0.00,pywws,2013-03-04 04:24:00,
2013-03-03 23:30:00,26.8,11.5,29.75,North,0,1.6,3.1,52,0.00,,,0.00,pywws,2013-03-04 04:30:00,
2013-03-03 23:36:00,26.8,11.5,29.75,North,0,1.6,3.1,52,0.00,,,0.00,pywws,2013-03-04 04:36:00,
2013-03-03 23:41:00,26.8,11.5,29.75,North,0,1.6,3.1,52,0.00,,,0.00,pywws,2013-03-04 04:41:00,
2013-03-03 23:47:00,26.8,11.1,29.76,North,0,2.2,3.1,51,0.00,,,0.00,pywws,2013-03-04 04:47:00,
2013-03-03 23:52:00,26.8,11.5,29.75,North,0,1.6,2.2,52,0.00,,,0.00,pywws,2013-03-04 04:52:00,
2013-03-03 23:58:00,26.8,11.1,29.75,North,0,2.2,3.1,51,0.00,,,0.00,pywws,2013-03-04 04:58:00,